createdAt,value
2023-02-14T00:01:40.857Z,34.08
2023-02-14T00:04:45.849Z,29.23
2023-02-14T00:07:48.421Z,26.30
2023-02-14T00:10:51.413Z,23.07
2023-02-14T00:14:12.621Z,21.67
2023-02-14T00:17:15.626Z,24.15
2023-02-14T00:20:18.384Z,19.20
2023-02-14T00:23:21.640Z,17.67
2023-02-14T00:26:24.163Z,17.87
2023-02-14T00:29:31.632Z,16.85
2023-02-14T00:32:34.814Z,17.50
2023-02-14T00:35:38.696Z,15.48
2023-02-14T00:38:41.178Z,17.80
2023-02-14T00:41:44.931Z,19.67
2023-02-14T00:44:47.469Z,18.65
2023-02-14T00:47:50.263Z,17.02
2023-02-14T00:50:54.169Z,20.10
2023-02-14T00:53:57.065Z,19.48
2023-02-14T00:56:59.856Z,18.90
2023-02-14T01:00:02.894Z,18.15
2023-02-14T01:03:06.995Z,16.87
2023-02-14T01:06:10.350Z,20.90
2023-02-14T01:09:12.933Z,23.92
2023-02-14T01:12:15.821Z,21.10
2023-02-14T01:15:18.351Z,18.45
2023-02-14T01:18:21.334Z,19.77
2023-02-14T01:21:29.868Z,15.98
2023-02-14T01:24:32.834Z,21.25
2023-02-14T01:27:36.099Z,14.30
2023-02-14T01:30:39.081Z,15.25
2023-02-14T01:33:43.280Z,17.83
2023-02-14T01:36:46.203Z,17.52
2023-02-14T01:39:48.792Z,15.48
2023-02-14T01:42:51.878Z,13.83
2023-02-14T01:45:54.735Z,17.92
2023-02-14T01:49:05.795Z,17.98
2023-02-14T01:52:32.461Z,15.88
2023-02-14T01:55:39.531Z,12.68
2023-02-14T01:58:45.113Z,16.70
2023-02-14T02:01:50.195Z,15.07
2023-02-14T02:04:55.341Z,17.23
2023-02-14T02:08:01.258Z,16.75
2023-02-14T02:11:04.194Z,14.60
2023-02-14T02:14:06.827Z,17.60
2023-02-14T02:17:24.614Z,17.30
2023-02-14T02:20:39.395Z,17.37
2023-02-14T02:23:42.287Z,15.23
2023-02-14T02:27:10.052Z,19.62
2023-02-14T02:30:28.057Z,16.93
2023-02-14T02:33:52.541Z,18.45
2023-02-14T02:37:07.503Z,18.20
2023-02-14T02:40:16.132Z,17.40
2023-02-14T02:43:21.662Z,21.87
2023-02-14T02:46:49.534Z,17.93
2023-02-14T02:50:17.667Z,21.27
2023-02-14T02:53:48.169Z,18.65
2023-02-14T02:56:55.983Z,17.85
2023-02-14T02:59:59.651Z,17.00
2023-02-14T03:03:21.366Z,18.77
2023-02-14T03:06:23.962Z,15.50
2023-02-14T03:09:26.673Z,17.23
2023-02-14T03:12:33.659Z,18.12
2023-02-14T03:15:42.327Z,15.43
2023-02-14T03:19:10.769Z,14.50
2023-02-14T03:22:13.549Z,14.55
2023-02-14T03:25:23.219Z,17.10
2023-02-14T03:28:51.375Z,16.02
2023-02-14T03:32:12.730Z,14.05
2023-02-14T03:35:40.406Z,14.33
2023-02-14T03:38:59.366Z,18.05
2023-02-14T03:42:07.914Z,15.77
2023-02-14T03:45:15.545Z,16.02
2023-02-14T03:48:19.856Z,12.93
2023-02-14T03:51:23.327Z,15.60
2023-02-14T03:54:27.135Z,13.52
2023-02-14T03:57:35.722Z,13.48
2023-02-14T04:00:41.251Z,13.25
2023-02-14T04:03:44.990Z,14.63
2023-02-14T04:06:47.733Z,13.70
2023-02-14T04:09:51.328Z,14.30
2023-02-14T04:12:54.131Z,14.65
2023-02-14T04:15:57.191Z,14.95
2023-02-14T04:19:18.548Z,12.35
2023-02-14T04:22:21.519Z,14.13
2023-02-14T04:25:24.205Z,14.35
2023-02-14T04:28:27.101Z,15.25
2023-02-14T04:31:30.008Z,14.63
2023-02-14T04:34:33.015Z,13.23
2023-02-14T04:37:35.767Z,15.00
2023-02-14T04:40:44.306Z,14.80
2023-02-14T04:43:46.933Z,14.30
2023-02-14T04:46:49.982Z,16.20
2023-02-14T04:49:53.000Z,13.05
2023-02-14T04:52:56.234Z,14.07
2023-02-14T04:55:58.905Z,15.73
2023-02-14T04:59:01.628Z,13.10
2023-02-14T05:02:04.588Z,13.05
2023-02-14T05:05:09.111Z,19.77
2023-02-14T05:08:14.448Z,13.07
2023-02-14T05:11:17.638Z,16.95
2023-02-14T05:14:20.248Z,15.88
2023-02-14T05:17:23.671Z,14.52
2023-02-14T05:20:26.278Z,16.15
2023-02-14T05:23:29.166Z,16.43
2023-02-14T05:26:31.892Z,15.75
2023-02-14T05:29:35.187Z,16.05
2023-02-14T05:32:37.694Z,14.40
2023-02-14T05:35:40.529Z,18.05
2023-02-14T05:38:43.659Z,13.90
2023-02-14T05:41:46.645Z,15.77
2023-02-14T05:44:49.290Z,18.12
2023-02-14T05:47:52.268Z,14.43
2023-02-14T05:50:54.886Z,14.85
2023-02-14T05:54:00.201Z,16.43
2023-02-14T05:57:02.782Z,15.23
2023-02-14T06:00:07.345Z,16.52
2023-02-14T06:03:14.755Z,16.92
2023-02-14T06:06:17.563Z,14.32
2023-02-14T06:09:20.059Z,16.90
2023-02-14T06:12:23.044Z,15.43
2023-02-14T06:15:25.884Z,15.32
2023-02-14T06:18:29.689Z,21.15
2023-02-14T06:21:32.330Z,18.20
2023-02-14T06:24:35.497Z,19.43
2023-02-14T06:27:38.006Z,18.70
2023-02-14T06:30:40.989Z,19.33
2023-02-14T06:33:43.629Z,20.15
2023-02-14T06:36:46.421Z,21.33
2023-02-14T06:39:49.153Z,18.30
2023-02-14T06:42:52.080Z,21.35
2023-02-14T06:45:54.535Z,20.60
2023-02-14T06:48:57.552Z,23.15
2023-02-14T06:52:00.847Z,25.23
2023-02-14T06:55:03.678Z,21.70
2023-02-14T06:58:06.136Z,19.92
2023-02-14T07:01:09.392Z,20.55
2023-02-14T07:04:12.361Z,24.60
2023-02-14T07:07:15.267Z,23.48
2023-02-14T07:10:18.051Z,24.23
2023-02-14T07:13:20.905Z,24.83
2023-02-14T07:16:23.428Z,25.80
2023-02-14T07:19:26.849Z,23.00
2023-02-14T07:22:30.426Z,24.83
2023-02-14T07:25:33.460Z,20.23
2023-02-14T07:28:35.960Z,24.63
2023-02-14T07:31:39.086Z,27.40
2023-02-14T07:34:41.699Z,23.25
2023-02-14T07:37:44.585Z,22.87
2023-02-14T07:40:47.125Z,25.40
2023-02-14T07:43:50.799Z,26.00
2023-02-14T07:46:53.290Z,23.30
2023-02-14T07:49:56.062Z,25.25
2023-02-14T07:52:58.601Z,26.02
2023-02-14T07:56:01.539Z,27.03
2023-02-14T07:59:04.425Z,27.48
2023-02-14T08:02:07.668Z,25.23
2023-02-14T08:05:10.825Z,26.05
2023-02-14T08:08:13.388Z,24.75
2023-02-14T08:11:36.345Z,24.50
2023-02-14T08:14:39.003Z,24.45
2023-02-14T08:17:41.773Z,24.52
2023-02-14T08:20:46.055Z,24.65
2023-02-14T08:23:48.930Z,22.42
2023-02-14T08:26:51.512Z,23.83
2023-02-14T08:29:54.472Z,23.73
2023-02-14T08:32:57.124Z,24.90
2023-02-14T08:36:00.427Z,22.45
2023-02-14T08:39:04.582Z,23.35
2023-02-14T08:42:07.388Z,23.83
2023-02-14T08:45:10.209Z,22.48
2023-02-14T08:48:13.244Z,21.02
2023-02-14T08:51:16.753Z,21.37
2023-02-14T08:54:19.599Z,20.17
2023-02-14T08:57:22.182Z,21.17
2023-02-14T09:00:25.340Z,22.62
2023-02-14T09:03:28.017Z,28.92
2023-02-14T09:06:30.845Z,29.42
2023-02-14T09:09:33.475Z,31.73
2023-02-14T09:12:40.293Z,27.07
2023-02-14T09:15:43.620Z,29.00
2023-02-14T09:18:48.124Z,32.95
2023-02-14T09:21:50.901Z,30.08
2023-02-14T09:24:53.750Z,31.58
2023-02-14T09:27:56.382Z,30.10
2023-02-14T09:30:59.738Z,29.73
2023-02-14T09:34:22.092Z,24.87
2023-02-14T09:37:43.564Z,27.33
2023-02-14T09:40:47.025Z,25.95
2023-02-14T09:43:54.581Z,26.73
2023-02-14T09:47:01.829Z,26.62
2023-02-14T09:50:07.385Z,24.90
2023-02-14T09:53:16.614Z,25.48
2023-02-14T09:56:51.320Z,25.50
2023-02-14T10:00:24.519Z,22.43
2023-02-14T10:04:06.384Z,20.55
2023-02-14T10:07:20.882Z,24.12
2023-02-14T10:10:30.907Z,24.52
2023-02-14T10:14:01.882Z,24.30
2023-02-14T10:17:18.232Z,23.67
2023-02-14T10:20:26.743Z,25.95
2023-02-14T10:23:43.904Z,25.10
2023-02-14T10:26:48.648Z,25.33
2023-02-14T10:29:52.201Z,23.80
2023-02-14T10:33:08.282Z,22.47
2023-02-14T10:36:25.089Z,27.37
2023-02-14T10:39:49.540Z,23.02
2023-02-14T10:43:05.303Z,18.73
2023-02-14T10:46:38.877Z,21.40
2023-02-14T10:49:47.212Z,25.63
2023-02-14T10:53:05.538Z,19.20
2023-02-14T10:56:15.759Z,19.12
2023-02-14T10:59:25.379Z,25.08
2023-02-14T11:02:37.933Z,21.70
2023-02-14T11:05:46.778Z,22.43
2023-02-14T11:08:49.710Z,23.42
2023-02-14T11:11:55.360Z,20.10
2023-02-14T11:15:14.949Z,21.35
2023-02-14T11:18:33.089Z,18.17
2023-02-14T11:21:40.817Z,21.33
2023-02-14T11:24:45.422Z,22.40
2023-02-14T11:27:51.079Z,17.48
2023-02-14T11:30:53.911Z,21.17
2023-02-14T11:33:57.881Z,18.92
2023-02-14T11:37:00.989Z,21.03
2023-02-14T11:40:05.307Z,21.40
2023-02-14T11:43:14.425Z,18.87
2023-02-14T11:46:20.712Z,22.98
2023-02-14T11:49:32.131Z,23.67
2023-02-14T11:52:53.247Z,22.37
2023-02-14T11:55:58.432Z,18.37
2023-02-14T11:59:03.824Z,27.05
2023-02-14T12:02:32.863Z,18.92
2023-02-14T12:05:43.698Z,18.10
2023-02-14T12:08:46.923Z,21.43
2023-02-14T12:12:05.059Z,21.20
2023-02-14T12:15:27.086Z,18.35
2023-02-14T12:18:39.317Z,19.87
2023-02-14T12:22:03.943Z,17.05
2023-02-14T12:25:17.523Z,15.47
2023-02-14T12:28:24.989Z,19.25
2023-02-14T12:31:28.060Z,16.52
2023-02-14T12:34:30.614Z,24.30
2023-02-14T12:38:03.894Z,15.18
2023-02-14T12:41:17.138Z,18.77
2023-02-14T12:44:36.466Z,20.67
2023-02-14T12:47:46.828Z,16.80
2023-02-14T12:50:57.664Z,15.52
2023-02-14T12:54:21.861Z,17.77
2023-02-14T12:57:32.011Z,15.37
2023-02-14T13:00:59.440Z,14.27
2023-02-14T13:04:05.252Z,15.10
2023-02-14T13:07:16.698Z,13.45
2023-02-14T13:10:24.679Z,15.75
2023-02-14T13:13:33.294Z,15.07
2023-02-14T13:17:06.278Z,16.33
2023-02-14T13:20:08.747Z,14.23
2023-02-14T13:23:35.618Z,14.30
2023-02-14T13:26:40.615Z,13.02
2023-02-14T13:29:47.219Z,14.97
2023-02-14T13:32:51.283Z,15.00
2023-02-14T13:36:01.029Z,11.98
2023-02-14T13:39:04.233Z,12.23
2023-02-14T13:42:07.655Z,13.82
2023-02-14T13:45:34.995Z,10.80
2023-02-14T13:48:39.209Z,16.08
2023-02-14T13:51:49.822Z,14.73
2023-02-14T13:55:01.803Z,14.77
2023-02-14T13:58:07.088Z,16.25
2023-02-14T14:01:50.260Z,16.60
2023-02-14T14:04:53.142Z,16.90
2023-02-14T14:08:20.594Z,15.50
2023-02-14T14:11:23.425Z,17.85
2023-02-14T14:14:36.271Z,17.90
2023-02-14T14:17:46.112Z,16.33
2023-02-14T14:20:48.925Z,17.48
2023-02-14T14:24:13.802Z,14.80
2023-02-14T14:27:20.434Z,15.10
2023-02-14T14:30:31.269Z,13.90
2023-02-14T14:33:34.906Z,17.03
2023-02-14T14:36:37.875Z,18.30
2023-02-14T14:39:40.436Z,15.70
2023-02-14T14:42:43.412Z,17.05
2023-02-14T14:45:47.296Z,15.75
2023-02-14T14:48:51.976Z,15.60
2023-02-14T14:51:56.468Z,13.68
2023-02-14T14:55:00.096Z,15.20
2023-02-14T14:58:05.084Z,17.90
2023-02-14T15:01:13.262Z,16.90
2023-02-14T15:04:25.462Z,20.17
2023-02-14T15:07:34.916Z,19.23
2023-02-14T15:10:37.613Z,15.27
2023-02-14T15:13:49.898Z,15.93
2023-02-14T15:16:57.634Z,17.08
2023-02-14T15:20:04.410Z,18.03
2023-02-14T15:23:07.868Z,16.25
2023-02-14T15:26:34.073Z,14.68
2023-02-14T15:29:36.727Z,17.70
2023-02-14T15:32:39.630Z,18.00
2023-02-14T15:35:42.575Z,18.37
2023-02-14T15:38:51.214Z,16.90
2023-02-14T15:41:55.579Z,17.45
2023-02-14T15:45:22.515Z,19.45
2023-02-14T15:48:30.687Z,18.73
2023-02-14T15:51:36.356Z,23.40
2023-02-14T15:54:42.854Z,24.73
2023-02-14T15:57:49.786Z,19.33
2023-02-14T16:00:53.191Z,21.95
2023-02-14T16:03:59.894Z,21.87
2023-02-14T16:07:23.983Z,29.53
2023-02-14T16:10:29.894Z,24.63
2023-02-14T16:13:35.247Z,22.13
2023-02-14T16:17:01.633Z,24.10
2023-02-14T16:20:28.029Z,19.17
2023-02-14T16:23:31.566Z,17.40
2023-02-14T16:26:38.180Z,19.25
2023-02-14T16:29:41.588Z,19.15
2023-02-14T16:32:50.172Z,20.15
2023-02-14T16:35:53.366Z,18.25
2023-02-14T16:38:56.872Z,17.63
2023-02-14T16:41:59.842Z,18.42
2023-02-14T16:45:02.394Z,24.70
2023-02-14T16:48:05.745Z,23.33
2023-02-14T16:51:14.107Z,28.33
2023-02-14T16:54:20.658Z,37.60
2023-02-14T16:57:28.698Z,45.20
2023-02-14T17:00:31.791Z,57.35
2023-02-14T17:03:34.616Z,53.50
2023-02-14T17:06:39.749Z,40.30
2023-02-14T17:09:50.289Z,37.27
2023-02-14T17:12:53.421Z,32.40
2023-02-14T17:15:56.768Z,43.83
2023-02-14T17:19:02.337Z,36.97
2023-02-14T17:22:05.008Z,47.60
2023-02-14T17:25:09.048Z,56.07
2023-02-14T17:28:11.654Z,40.38
2023-02-14T17:31:14.841Z,46.17
2023-02-14T17:34:17.464Z,32.85
2023-02-14T17:37:20.845Z,33.95
2023-02-14T17:40:23.707Z,37.57
2023-02-14T17:43:26.969Z,44.15
2023-02-14T17:46:30.900Z,51.17
2023-02-14T17:49:34.211Z,50.35
2023-02-14T17:52:37.923Z,41.58
2023-02-14T17:55:41.071Z,53.17
2023-02-14T17:58:44.293Z,57.08
2023-02-14T18:01:47.903Z,47.28
2023-02-14T18:04:51.157Z,40.67
2023-02-14T18:07:53.974Z,40.33
2023-02-14T18:10:57.167Z,39.43
2023-02-14T18:14:01.826Z,26.02
2023-02-14T18:17:04.845Z,33.50
2023-02-14T18:20:08.084Z,32.13
2023-02-14T18:23:11.257Z,19.95
2023-02-14T18:26:16.798Z,19.87
2023-02-14T18:29:20.570Z,19.30
2023-02-14T18:32:23.855Z,17.00
2023-02-14T18:35:26.775Z,17.95
2023-02-14T18:38:29.754Z,17.15
2023-02-14T18:41:33.205Z,16.67
2023-02-14T18:44:36.318Z,19.08
2023-02-14T18:47:39.152Z,14.82
2023-02-14T18:50:41.965Z,15.93
2023-02-14T18:53:45.792Z,14.43
2023-02-14T18:56:48.601Z,12.00
2023-02-14T18:59:52.004Z,13.07
2023-02-14T19:02:56.898Z,11.77
2023-02-14T19:06:00.372Z,11.18
2023-02-14T19:09:06.973Z,9.27
2023-02-14T19:12:11.842Z,10.47
2023-02-14T19:15:14.626Z,10.30
2023-02-14T19:18:17.797Z,11.12
2023-02-14T19:21:23.677Z,12.48
2023-02-14T19:24:30.002Z,22.13
2023-02-14T19:27:34.037Z,23.53
2023-02-14T19:30:37.673Z,22.60
2023-02-14T19:33:43.020Z,18.80
2023-02-14T19:36:46.481Z,16.80
2023-02-14T19:39:49.477Z,11.73
2023-02-14T19:42:53.339Z,12.70
2023-02-14T19:45:57.198Z,12.37
2023-02-14T19:49:01.520Z,12.82
2023-02-14T19:52:06.254Z,12.40
2023-02-14T19:55:21.811Z,78.78
2023-02-14T19:58:26.074Z,87.60
2023-02-14T20:01:33.777Z,79.00
2023-02-14T20:04:37.137Z,79.12
2023-02-14T20:07:40.039Z,70.18
2023-02-14T20:10:43.513Z,72.20
2023-02-14T20:13:46.382Z,59.97
2023-02-14T20:16:50.466Z,42.05
2023-02-14T20:19:53.633Z,35.83
2023-02-14T20:22:56.831Z,31.62
2023-02-14T20:25:59.838Z,27.42
2023-02-14T20:29:05.400Z,24.77
2023-02-14T20:32:09.491Z,25.45
2023-02-14T20:35:13.543Z,27.20
2023-02-14T20:38:16.794Z,20.42
2023-02-14T20:41:20.562Z,19.65
2023-02-14T20:44:23.813Z,18.23
2023-02-14T20:47:26.956Z,17.75
2023-02-14T20:50:31.121Z,15.00
2023-02-14T20:53:34.242Z,16.17
2023-02-14T20:56:39.267Z,17.08
2023-02-14T20:59:44.844Z,14.43
2023-02-14T21:02:47.723Z,16.48
2023-02-14T21:05:50.803Z,16.17
2023-02-14T21:08:53.681Z,15.20
2023-02-14T21:11:58.380Z,17.95
2023-02-14T21:15:01.368Z,33.90
2023-02-14T21:18:05.251Z,55.72
2023-02-14T21:21:13.013Z,60.40
2023-02-14T21:24:16.449Z,64.72
2023-02-14T21:27:19.395Z,60.08
2023-02-14T21:30:22.876Z,59.57
2023-02-14T21:33:25.763Z,53.08
2023-02-14T21:36:31.296Z,46.00
2023-02-14T21:39:35.804Z,43.38
2023-02-14T21:42:39.467Z,52.65
2023-02-14T21:45:53.412Z,45.97
2023-02-14T21:49:19.227Z,47.42
2023-02-14T21:52:22.175Z,45.12
2023-02-14T21:55:25.363Z,42.00
2023-02-14T21:58:28.574Z,42.92
2023-02-14T22:01:34.627Z,47.13
2023-02-14T22:04:38.131Z,40.85
2023-02-14T22:07:41.102Z,39.20
2023-02-14T22:10:44.007Z,41.88
2023-02-14T22:13:46.924Z,38.65
2023-02-14T22:16:49.911Z,32.17
2023-02-14T22:19:52.744Z,25.95
2023-02-14T22:22:55.644Z,27.73
2023-02-14T22:26:11.154Z,30.12
2023-02-14T22:29:14.022Z,22.92
2023-02-14T22:32:17.630Z,24.13
2023-02-14T22:35:20.615Z,30.73
2023-02-14T22:38:23.654Z,22.80
2023-02-14T22:41:26.694Z,23.75
2023-02-14T22:44:29.232Z,25.67
2023-02-14T22:47:32.444Z,23.60
2023-02-14T22:50:35.644Z,22.13
2023-02-14T22:53:39.251Z,22.77
2023-02-14T22:56:51.540Z,29.25
2023-02-14T22:59:54.460Z,29.63
2023-02-14T23:02:57.174Z,27.87
2023-02-14T23:06:00.752Z,32.42
2023-02-14T23:09:05.717Z,29.77
2023-02-14T23:12:28.674Z,34.88
2023-02-14T23:15:50.351Z,29.25
2023-02-14T23:19:11.806Z,31.03
2023-02-14T23:22:19.454Z,27.52
2023-02-14T23:25:22.243Z,30.37
2023-02-14T23:28:25.241Z,21.33
2023-02-14T23:31:28.194Z,20.25
2023-02-14T23:34:32.558Z,24.73
2023-02-14T23:37:35.456Z,21.30
2023-02-14T23:40:56.848Z,20.73
2023-02-14T23:43:59.857Z,18.37
2023-02-14T23:47:04.588Z,21.42
2023-02-14T23:50:07.985Z,27.33
2023-02-14T23:53:10.566Z,27.17
2023-02-14T23:56:13.530Z,23.75
2023-02-14T23:59:16.530Z,27.27
